createdAt,value
2023-05-01T00:01:20.145Z,6.6
2023-05-01T00:06:20.687Z,2.6
2023-05-01T00:08:15.586Z,3.5
2023-05-01T00:13:16.149Z,3.7
2023-05-01T00:18:16.893Z,3.4
2023-05-01T00:23:17.543Z,3.5
2023-05-01T00:28:18.129Z,6.4
2023-05-01T00:33:18.863Z,6.5
2023-05-01T00:38:19.541Z,4.0
2023-05-01T00:43:20.142Z,3.1
2023-05-01T00:48:20.847Z,2.6
2023-05-01T00:53:21.399Z,2.6
2023-05-01T00:58:22.046Z,3.0
2023-05-01T01:03:22.747Z,1.5
2023-05-01T01:08:23.402Z,2.8
2023-05-01T01:13:24.090Z,2.0
2023-05-01T01:18:24.562Z,1.1
2023-05-01T01:23:25.205Z,2.6
2023-05-01T01:28:25.918Z,1.9
2023-05-01T01:33:26.631Z,2.4
2023-05-01T01:38:27.150Z,2.2
2023-05-01T01:43:27.947Z,2.0
2023-05-01T01:48:28.574Z,3.4
2023-05-01T01:53:29.172Z,3.2
2023-05-01T01:58:30.002Z,5.3
2023-05-01T02:03:30.655Z,1.9
2023-05-01T02:08:31.111Z,5.7
2023-05-01T02:13:32.151Z,5.8
2023-05-01T02:18:32.463Z,4.8
2023-05-01T02:23:33.069Z,8.0
2023-05-01T02:28:33.827Z,5.4
2023-05-01T02:33:34.455Z,10.6
2023-05-01T02:38:35.002Z,14.3
2023-05-01T02:43:35.774Z,12.4
2023-05-01T02:48:36.288Z,10.4
2023-05-01T02:53:36.920Z,12.8
2023-05-01T02:58:37.620Z,11.9
2023-05-01T03:03:38.234Z,13.0
2023-05-01T03:08:38.900Z,9.4
2023-05-01T03:13:39.534Z,10.5
2023-05-01T03:18:39.994Z,13.7
2023-05-01T03:23:40.702Z,13.6
2023-05-01T03:28:41.422Z,8.6
2023-05-01T03:33:41.849Z,5.9
2023-05-01T03:38:42.561Z,9.7
2023-05-01T03:43:43.207Z,10.3
2023-05-01T03:48:43.828Z,8.8
2023-05-01T03:53:44.399Z,7.7
2023-05-01T03:58:45.043Z,6.7
2023-05-01T04:03:45.802Z,6.9
2023-05-01T04:08:46.307Z,9.1
2023-05-01T04:13:47.259Z,4.5
2023-05-01T04:18:47.462Z,2.7
2023-05-01T04:23:48.173Z,4.2
2023-05-01T04:28:48.828Z,6.4
2023-05-01T04:33:49.345Z,6.1
2023-05-01T04:38:49.906Z,5.0
2023-05-01T04:43:50.620Z,3.0
2023-05-01T04:48:51.086Z,4.3
2023-05-01T04:53:51.772Z,4.3
2023-05-01T04:58:52.383Z,2.9
2023-05-01T05:03:53.094Z,4.6
2023-05-01T05:08:53.473Z,3.3
2023-05-01T05:13:54.327Z,4.6
2023-05-01T05:18:54.544Z,6.0
2023-05-01T05:23:55.133Z,5.9
2023-05-01T05:28:55.751Z,4.1
2023-05-01T05:33:56.350Z,4.0
2023-05-01T05:38:56.894Z,3.4
2023-05-01T05:43:57.550Z,4.2
2023-05-01T05:48:58.002Z,1.9
2023-05-01T05:53:58.576Z,3.7
2023-05-01T05:58:59.231Z,1.8
2023-05-01T06:03:59.746Z,3.5
2023-05-01T06:09:00.378Z,3.5
2023-05-01T06:14:00.852Z,6.0
2023-05-01T06:19:01.370Z,2.6
2023-05-01T06:24:01.819Z,2.9
2023-05-01T06:29:02.488Z,5.4
2023-05-01T06:34:02.911Z,1.7
2023-05-01T06:39:03.524Z,4.1
2023-05-01T06:44:04.118Z,3.4
2023-05-01T06:49:04.622Z,2.9
2023-05-01T06:54:05.110Z,4.0
2023-05-01T06:59:05.740Z,3.1
2023-05-01T07:04:06.167Z,4.6
2023-05-01T07:09:06.759Z,2.6
2023-05-01T07:14:07.275Z,4.1
2023-05-01T07:19:07.769Z,3.3
2023-05-01T07:24:08.342Z,2.2
2023-05-01T07:29:08.810Z,2.2
2023-05-01T07:34:09.347Z,2.5
2023-05-01T07:39:09.782Z,1.6
2023-05-01T07:44:10.438Z,3.1
2023-05-01T07:49:10.910Z,2.0
2023-05-01T07:54:11.467Z,1.5
2023-05-01T07:59:12.022Z,2.6
2023-05-01T08:04:12.736Z,2.9
2023-05-01T08:09:13.069Z,0.9
2023-05-01T08:14:13.733Z,1.4
2023-05-01T08:19:14.181Z,1.1
2023-05-01T08:24:14.758Z,2.7
2023-05-01T08:29:15.411Z,3.9
2023-05-01T08:34:15.843Z,2.4
2023-05-01T08:39:16.423Z,3.9
2023-05-01T08:44:16.956Z,2.4
2023-05-01T08:49:17.491Z,1.9
2023-05-01T08:54:17.991Z,3.0
2023-05-01T08:59:18.571Z,1.6
2023-05-01T09:04:19.056Z,2.2
2023-05-01T09:09:19.805Z,2.6
2023-05-01T09:14:20.146Z,3.1
2023-05-01T09:19:20.852Z,3.6
2023-05-01T09:24:21.004Z,2.1
2023-05-01T09:29:21.729Z,3.8
2023-05-01T09:34:22.131Z,3.1
2023-05-01T09:39:22.719Z,4.3
2023-05-01T09:44:23.252Z,5.6
2023-05-01T09:49:23.742Z,4.0
2023-05-01T09:54:24.348Z,7.5
2023-05-01T09:59:24.940Z,4.9
2023-05-01T10:04:25.433Z,4.8
2023-05-01T10:09:25.868Z,6.7
2023-05-01T10:14:26.541Z,6.9
2023-05-01T10:19:26.924Z,6.6
2023-05-01T10:24:27.541Z,5.2
2023-05-01T10:29:28.048Z,7.1
2023-05-01T10:34:28.731Z,6.9
2023-05-01T10:39:29.108Z,5.3
2023-05-01T10:44:29.861Z,2.8
2023-05-01T10:49:30.306Z,5.0
2023-05-01T10:54:30.800Z,4.8
2023-05-01T10:59:31.530Z,4.1
2023-05-01T11:04:31.890Z,5.5
2023-05-01T11:09:32.464Z,7.0
2023-05-01T11:14:33.049Z,7.4
2023-05-01T11:19:33.773Z,12.1
2023-05-01T11:24:34.113Z,6.6
2023-05-01T11:29:34.806Z,7.2
2023-05-01T11:34:35.340Z,10.9
2023-05-01T11:39:35.831Z,10.4
2023-05-01T11:44:36.414Z,9.6
2023-05-01T11:49:37.009Z,5.5
2023-05-01T11:54:37.572Z,6.8
2023-05-01T11:59:38.170Z,7.0
2023-05-01T12:04:38.750Z,8.8
2023-05-01T12:09:39.680Z,6.3
2023-05-01T12:14:39.804Z,8.6
2023-05-01T12:19:40.645Z,8.9
2023-05-01T12:24:40.972Z,6.8
2023-05-01T12:29:41.627Z,7.9
2023-05-01T12:34:42.058Z,6.0
2023-05-01T12:39:42.724Z,7.4
2023-05-01T12:44:43.260Z,6.9
2023-05-01T12:49:43.793Z,7.0
2023-05-01T12:54:44.531Z,7.6
2023-05-01T12:59:44.979Z,7.7
2023-05-01T13:04:45.667Z,5.4
2023-05-01T13:09:46.127Z,5.2
2023-05-01T13:14:46.887Z,4.4
2023-05-01T13:19:47.528Z,4.7
2023-05-01T13:24:47.882Z,6.7
2023-05-01T13:29:48.576Z,6.0
2023-05-01T13:34:49.048Z,3.7
2023-05-01T13:39:49.696Z,4.2
2023-05-01T13:44:50.268Z,6.2
2023-05-01T13:49:50.844Z,5.9
2023-05-01T13:54:51.342Z,6.0
2023-05-01T13:59:51.923Z,4.2
2023-05-01T14:04:52.499Z,10.9
2023-05-01T14:09:53.043Z,6.1
2023-05-01T14:14:53.771Z,4.2
2023-05-01T14:19:54.452Z,5.2
2023-05-01T14:24:54.808Z,4.4
2023-05-01T14:29:55.592Z,3.4
2023-05-01T14:34:56.174Z,6.0
2023-05-01T14:39:56.670Z,6.0
2023-05-01T14:44:57.548Z,5.3
2023-05-01T14:49:57.898Z,9.3
2023-05-01T14:54:58.730Z,3.9
2023-05-01T14:59:59.083Z,4.2
2023-05-01T15:04:59.915Z,5.1
2023-05-01T15:10:00.627Z,4.8
2023-05-01T15:15:01.033Z,5.0
2023-05-01T15:20:01.710Z,6.5
2023-05-01T15:25:02.080Z,5.9
2023-05-01T15:30:02.798Z,3.7
2023-05-01T15:35:03.347Z,4.4
2023-05-01T15:40:03.909Z,3.4
2023-05-01T15:45:04.633Z,5.9
2023-05-01T15:50:05.111Z,4.5
2023-05-01T15:55:05.771Z,4.2
2023-05-01T16:00:06.416Z,5.7
2023-05-01T16:05:06.852Z,5.3
2023-05-01T16:10:07.475Z,5.9
2023-05-01T16:15:08.037Z,8.0
2023-05-01T16:20:08.496Z,5.2
2023-05-01T16:25:09.093Z,7.4
2023-05-01T16:30:09.777Z,6.7
2023-05-01T16:35:10.211Z,7.0
2023-05-01T16:40:10.774Z,6.4
2023-05-01T16:45:11.362Z,7.0
2023-05-01T16:50:11.777Z,5.3
2023-05-01T16:55:12.420Z,7.3
2023-05-01T17:00:13.006Z,4.3
2023-05-01T17:05:13.510Z,4.5
2023-05-01T17:10:14.000Z,5.2
2023-05-01T17:15:14.869Z,5.6
2023-05-01T17:20:15.097Z,5.1
2023-05-01T17:25:15.717Z,4.4
2023-05-01T17:30:16.237Z,5.3
2023-05-01T17:35:16.807Z,5.0
2023-05-01T17:40:17.317Z,5.3
2023-05-01T17:45:17.783Z,5.8
2023-05-01T17:50:18.403Z,6.7
2023-05-01T17:55:18.880Z,6.4
2023-05-01T18:00:19.555Z,6.0
2023-05-01T18:05:19.963Z,5.1
2023-05-01T18:10:20.584Z,7.1
2023-05-01T18:15:22.966Z,6.3
2023-05-01T18:20:21.686Z,7.6
2023-05-01T18:25:22.105Z,5.3
2023-05-01T18:30:22.875Z,6.0
2023-05-01T18:35:23.210Z,5.4
2023-05-01T18:40:23.774Z,5.1
2023-05-01T18:45:24.510Z,6.9
2023-05-01T18:50:24.916Z,4.4
2023-05-01T18:55:25.491Z,7.2
2023-05-01T19:00:26.061Z,6.0
2023-05-01T19:05:26.588Z,6.6
2023-05-01T19:10:27.029Z,5.4
2023-05-01T19:15:27.988Z,3.1
2023-05-01T19:20:28.104Z,2.9
2023-05-01T19:25:28.583Z,8.9
2023-05-01T19:30:29.264Z,4.3
2023-05-01T19:35:29.741Z,3.2
2023-05-01T19:40:30.146Z,3.7
2023-05-01T19:45:30.813Z,4.9
2023-05-01T19:50:33.299Z,4.3
2023-05-01T19:55:31.697Z,2.7
2023-05-01T20:00:32.317Z,4.5
2023-05-01T20:05:32.774Z,2.1
2023-05-01T20:10:33.420Z,2.9
2023-05-01T20:15:34.078Z,4.7
2023-05-01T20:20:34.806Z,3.3
2023-05-01T20:25:35.045Z,2.1
2023-05-01T20:30:35.733Z,3.5
2023-05-01T20:35:36.192Z,2.9
2023-05-01T20:40:36.777Z,4.2
2023-05-01T20:45:37.506Z,3.4
2023-05-01T20:50:37.881Z,2.1
2023-05-01T20:55:38.411Z,3.3
2023-05-01T21:00:38.980Z,5.3
2023-05-01T21:05:39.439Z,3.1
2023-05-01T21:10:39.894Z,2.4
2023-05-01T21:15:40.828Z,2.9
2023-05-01T21:20:40.958Z,2.5
2023-05-01T21:25:41.483Z,2.4
2023-05-01T21:30:42.038Z,4.0
2023-05-01T21:35:42.391Z,3.6
2023-05-01T21:40:42.815Z,2.6
2023-05-01T21:45:43.344Z,4.2
2023-05-01T21:50:43.752Z,2.6
2023-05-01T21:55:44.306Z,3.2
2023-05-01T22:00:44.860Z,2.3
2023-05-01T22:05:45.192Z,2.1
2023-05-01T22:10:45.655Z,1.9
2023-05-01T22:15:46.447Z,5.3
2023-05-01T22:20:46.610Z,2.4
2023-05-01T22:25:47.077Z,2.4
2023-05-01T22:30:47.693Z,3.2
2023-05-01T22:35:48.087Z,3.1
2023-05-01T22:40:48.551Z,3.8
2023-05-01T22:45:49.005Z,5.5
2023-05-01T22:50:49.462Z,6.7
2023-05-01T22:55:49.794Z,4.0
2023-05-01T23:00:50.404Z,3.8
2023-05-01T23:05:50.699Z,2.0
2023-05-01T23:10:51.190Z,3.9
2023-05-01T23:15:51.812Z,5.7
2023-05-01T23:20:51.981Z,2.1
2023-05-01T23:25:52.419Z,3.1
2023-05-01T23:30:52.901Z,3.9
2023-05-01T23:35:53.360Z,2.5
2023-05-01T23:40:53.681Z,2.3
2023-05-01T23:45:54.221Z,2.7
2023-05-01T23:50:54.712Z,5.7
2023-05-01T23:55:55.022Z,5.7
